sensor_id;sensor_type;location;lat;lon;timestamp;P1;durP1;ratioP1;P2;durP2;ratioP2
28246;SDS011;34504;53.178;22.058;2022-12-07T00:01:45;36.75;;;20.90;;
28246;SDS011;34504;53.178;22.058;2022-12-07T00:04:15;37.92;;;20.13;;
28246;SDS011;34504;53.178;22.058;2022-12-07T00:06:45;38.67;;;21.08;;
28246;SDS011;34504;53.178;22.058;2022-12-07T00:09:17;37.00;;;20.02;;
28246;SDS011;34504;53.178;22.058;2022-12-07T00:11:48;31.48;;;18.58;;
28246;SDS011;34504;53.178;22.058;2022-12-07T00:14:18;34.40;;;19.80;;
28246;SDS011;34504;53.178;22.058;2022-12-07T00:16:48;30.40;;;17.70;;
28246;SDS011;34504;53.178;22.058;2022-12-07T00:19:17;32.35;;;19.08;;
28246;SDS011;34504;53.178;22.058;2022-12-07T00:21:48;33.08;;;20.00;;
28246;SDS011;34504;53.178;22.058;2022-12-07T00:24:17;33.17;;;19.20;;
28246;SDS011;34504;53.178;22.058;2022-12-07T00:26:45;34.47;;;20.33;;
28246;SDS011;34504;53.178;22.058;2022-12-07T00:29:17;30.67;;;18.83;;
28246;SDS011;34504;53.178;22.058;2022-12-07T00:31:47;28.02;;;17.20;;
28246;SDS011;34504;53.178;22.058;2022-12-07T00:34:19;27.38;;;16.10;;
28246;SDS011;34504;53.178;22.058;2022-12-07T00:36:48;32.13;;;17.95;;
28246;SDS011;34504;53.178;22.058;2022-12-07T00:39:17;31.15;;;18.30;;
28246;SDS011;34504;53.178;22.058;2022-12-07T00:41:45;29.45;;;16.77;;
28246;SDS011;34504;53.178;22.058;2022-12-07T00:44:13;32.72;;;19.10;;
28246;SDS011;34504;53.178;22.058;2022-12-07T00:46:41;30.38;;;17.55;;
28246;SDS011;34504;53.178;22.058;2022-12-07T00:49:11;32.75;;;19.05;;
28246;SDS011;34504;53.178;22.058;2022-12-07T00:51:39;28.58;;;17.50;;
28246;SDS011;34504;53.178;22.058;2022-12-07T00:54:07;31.58;;;18.00;;
28246;SDS011;34504;53.178;22.058;2022-12-07T00:56:35;31.88;;;18.58;;
28246;SDS011;34504;53.178;22.058;2022-12-07T00:59:03;31.50;;;18.35;;
28246;SDS011;34504;53.178;22.058;2022-12-07T01:01:33;31.77;;;18.23;;
28246;SDS011;34504;53.178;22.058;2022-12-07T01:04:03;31.00;;;17.65;;
28246;SDS011;34504;53.178;22.058;2022-12-07T01:06:31;34.83;;;18.23;;
28246;SDS011;34504;53.178;22.058;2022-12-07T01:09:00;31.52;;;18.15;;
28246;SDS011;34504;53.178;22.058;2022-12-07T01:11:34;32.95;;;18.75;;
28246;SDS011;34504;53.178;22.058;2022-12-07T01:14:02;36.47;;;19.67;;
28246;SDS011;34504;53.178;22.058;2022-12-07T01:16:31;33.78;;;17.80;;
28246;SDS011;34504;53.178;22.058;2022-12-07T01:19:00;26.37;;;13.97;;
28246;SDS011;34504;53.178;22.058;2022-12-07T01:21:32;35.60;;;18.95;;
28246;SDS011;34504;53.178;22.058;2022-12-07T01:24:04;34.65;;;18.75;;
28246;SDS011;34504;53.178;22.058;2022-12-07T01:26:33;33.97;;;18.48;;
28246;SDS011;34504;53.178;22.058;2022-12-07T01:29:02;35.03;;;20.30;;
28246;SDS011;34504;53.178;22.058;2022-12-07T01:31:30;34.97;;;19.52;;
28246;SDS011;34504;53.178;22.058;2022-12-07T01:33:58;35.83;;;20.45;;
28246;SDS011;34504;53.178;22.058;2022-12-07T01:36:31;38.17;;;20.63;;
28246;SDS011;34504;53.178;22.058;2022-12-07T01:39:05;32.88;;;19.50;;
28246;SDS011;34504;53.178;22.058;2022-12-07T01:41:50;30.80;;;18.50;;
28246;SDS011;34504;53.178;22.058;2022-12-07T01:46:54;33.42;;;19.00;;
28246;SDS011;34504;53.178;22.058;2022-12-07T01:49:29;35.08;;;19.67;;
28246;SDS011;34504;53.178;22.058;2022-12-07T01:52:27;36.45;;;19.45;;
28246;SDS011;34504;53.178;22.058;2022-12-07T01:59:58;29.38;;;17.08;;
28246;SDS011;34504;53.178;22.058;2022-12-07T02:02:43;36.25;;;19.40;;
28246;SDS011;34504;53.178;22.058;2022-12-07T02:05:24;34.00;;;19.45;;
28246;SDS011;34504;53.178;22.058;2022-12-07T02:07:53;38.10;;;20.38;;
28246;SDS011;34504;53.178;22.058;2022-12-07T02:10:25;36.75;;;20.33;;
28246;SDS011;34504;53.178;22.058;2022-12-07T02:12:56;36.90;;;20.85;;
28246;SDS011;34504;53.178;22.058;2022-12-07T02:15:40;36.95;;;20.73;;
28246;SDS011;34504;53.178;22.058;2022-12-07T02:18:39;33.22;;;19.48;;
28246;SDS011;34504;53.178;22.058;2022-12-07T02:27:46;38.33;;;20.70;;
28246;SDS011;34504;53.178;22.058;2022-12-07T02:30:20;38.53;;;19.80;;
28246;SDS011;34504;53.178;22.058;2022-12-07T02:32:57;33.58;;;19.80;;
28246;SDS011;34504;53.178;22.058;2022-12-07T02:41:49;34.17;;;19.73;;
28246;SDS011;34504;53.178;22.058;2022-12-07T02:44:24;37.00;;;20.15;;
28246;SDS011;34504;53.178;22.058;2022-12-07T02:46:55;34.65;;;19.92;;
28246;SDS011;34504;53.178;22.058;2022-12-07T02:49:29;35.75;;;20.25;;
28246;SDS011;34504;53.178;22.058;2022-12-07T02:51:58;33.60;;;19.23;;
28246;SDS011;34504;53.178;22.058;2022-12-07T02:54:26;36.60;;;19.92;;
28246;SDS011;34504;53.178;22.058;2022-12-07T02:59:55;34.75;;;19.35;;
28246;SDS011;34504;53.178;22.058;2022-12-07T03:05:16;38.53;;;20.17;;
28246;SDS011;34504;53.178;22.058;2022-12-07T03:10:58;37.33;;;21.17;;
28246;SDS011;34504;53.178;22.058;2022-12-07T03:14:11;35.60;;;19.48;;
28246;SDS011;34504;53.178;22.058;2022-12-07T03:17:15;40.85;;;21.17;;
28246;SDS011;34504;53.178;22.058;2022-12-07T03:19:39;42.72;;;22.17;;
28246;SDS011;34504;53.178;22.058;2022-12-07T03:22:11;43.58;;;22.52;;
28246;SDS011;34504;53.178;22.058;2022-12-07T03:24:47;38.53;;;20.65;;
28246;SDS011;34504;53.178;22.058;2022-12-07T03:27:25;36.67;;;20.33;;
28246;SDS011;34504;53.178;22.058;2022-12-07T03:29:59;44.17;;;23.15;;
28246;SDS011;34504;53.178;22.058;2022-12-07T03:35:08;40.00;;;21.48;;
28246;SDS011;34504;53.178;22.058;2022-12-07T03:37:56;43.03;;;22.10;;
28246;SDS011;34504;53.178;22.058;2022-12-07T03:40:34;38.03;;;20.95;;
28246;SDS011;34504;53.178;22.058;2022-12-07T03:43:07;38.47;;;21.55;;
28246;SDS011;34504;53.178;22.058;2022-12-07T03:45:40;38.30;;;20.88;;
28246;SDS011;34504;53.178;22.058;2022-12-07T03:50:41;43.72;;;22.48;;
28246;SDS011;34504;53.178;22.058;2022-12-07T03:53:19;36.80;;;20.65;;
28246;SDS011;34504;53.178;22.058;2022-12-07T03:55:51;39.80;;;21.77;;
28246;SDS011;34504;53.178;22.058;2022-12-07T03:58:21;39.83;;;21.00;;
28246;SDS011;34504;53.178;22.058;2022-12-07T04:00:51;37.60;;;20.35;;
28246;SDS011;34504;53.178;22.058;2022-12-07T04:03:20;40.97;;;22.35;;
28246;SDS011;34504;53.178;22.058;2022-12-07T04:05:48;40.33;;;22.15;;
28246;SDS011;34504;53.178;22.058;2022-12-07T04:08:16;41.67;;;23.20;;
28246;SDS011;34504;53.178;22.058;2022-12-07T04:10:44;42.67;;;24.13;;
28246;SDS011;34504;53.178;22.058;2022-12-07T04:13:13;46.33;;;24.98;;
28246;SDS011;34504;53.178;22.058;2022-12-07T04:15:41;39.38;;;23.42;;
28246;SDS011;34504;53.178;22.058;2022-12-07T04:18:09;40.67;;;22.58;;
28246;SDS011;34504;53.178;22.058;2022-12-07T04:20:37;40.40;;;22.90;;
28246;SDS011;34504;53.178;22.058;2022-12-07T04:23:05;66.78;;;33.45;;
28246;SDS011;34504;53.178;22.058;2022-12-07T04:25:33;85.35;;;41.22;;
28246;SDS011;34504;53.178;22.058;2022-12-07T04:28:01;104.32;;;50.97;;
28246;SDS011;34504;53.178;22.058;2022-12-07T04:30:29;161.05;;;74.63;;
28246;SDS011;34504;53.178;22.058;2022-12-07T04:32:57;251.07;;;114.97;;
28246;SDS011;34504;53.178;22.058;2022-12-07T04:35:25;186.88;;;93.57;;
28246;SDS011;34504;53.178;22.058;2022-12-07T04:37:56;130.07;;;68.07;;
28246;SDS011;34504;53.178;22.058;2022-12-07T04:40:44;86.65;;;48.85;;
28246;SDS011;34504;53.178;22.058;2022-12-07T04:43:13;82.65;;;48.08;;
28246;SDS011;34504;53.178;22.058;2022-12-07T04:45:45;69.88;;;41.60;;
28246;SDS011;34504;53.178;22.058;2022-12-07T04:48:14;87.32;;;49.85;;
28246;SDS011;34504;53.178;22.058;2022-12-07T04:50:42;81.35;;;48.80;;
28246;SDS011;34504;53.178;22.058;2022-12-07T04:53:12;70.82;;;41.05;;
28246;SDS011;34504;53.178;22.058;2022-12-07T04:55:40;63.47;;;35.90;;
28246;SDS011;34504;53.178;22.058;2022-12-07T04:58:09;55.88;;;30.92;;
28246;SDS011;34504;53.178;22.058;2022-12-07T05:00:37;53.30;;;28.80;;
28246;SDS011;34504;53.178;22.058;2022-12-07T05:03:05;52.92;;;27.95;;
28246;SDS011;34504;53.178;22.058;2022-12-07T05:05:33;56.42;;;29.83;;
28246;SDS011;34504;53.178;22.058;2022-12-07T05:08:01;66.32;;;33.78;;
28246;SDS011;34504;53.178;22.058;2022-12-07T05:10:29;62.67;;;32.72;;
28246;SDS011;34504;53.178;22.058;2022-12-07T05:12:57;63.35;;;32.30;;
28246;SDS011;34504;53.178;22.058;2022-12-07T05:15:25;56.55;;;29.92;;
28246;SDS011;34504;53.178;22.058;2022-12-07T05:18:09;59.15;;;31.23;;
28246;SDS011;34504;53.178;22.058;2022-12-07T05:20:54;58.53;;;31.30;;
28246;SDS011;34504;53.178;22.058;2022-12-07T05:23:22;67.10;;;34.55;;
28246;SDS011;34504;53.178;22.058;2022-12-07T05:25:50;76.22;;;37.38;;
28246;SDS011;34504;53.178;22.058;2022-12-07T05:28:18;79.50;;;39.17;;
28246;SDS011;34504;53.178;22.058;2022-12-07T05:30:46;72.10;;;36.75;;
28246;SDS011;34504;53.178;22.058;2022-12-07T05:33:14;68.60;;;35.60;;
28246;SDS011;34504;53.178;22.058;2022-12-07T05:35:42;73.22;;;38.13;;
28246;SDS011;34504;53.178;22.058;2022-12-07T05:38:10;64.32;;;34.45;;
28246;SDS011;34504;53.178;22.058;2022-12-07T05:40:38;72.47;;;36.13;;
28246;SDS011;34504;53.178;22.058;2022-12-07T05:43:07;72.32;;;36.88;;
28246;SDS011;34504;53.178;22.058;2022-12-07T05:45:34;88.50;;;44.90;;
28246;SDS011;34504;53.178;22.058;2022-12-07T05:48:03;92.38;;;47.90;;
28246;SDS011;34504;53.178;22.058;2022-12-07T05:50:31;78.57;;;42.72;;
28246;SDS011;34504;53.178;22.058;2022-12-07T05:53:02;75.47;;;38.97;;
28246;SDS011;34504;53.178;22.058;2022-12-07T05:55:30;63.83;;;34.28;;
28246;SDS011;34504;53.178;22.058;2022-12-07T05:57:58;64.68;;;34.65;;
28246;SDS011;34504;53.178;22.058;2022-12-07T06:00:45;58.92;;;31.85;;
28246;SDS011;34504;53.178;22.058;2022-12-07T06:03:17;61.33;;;33.65;;
28246;SDS011;34504;53.178;22.058;2022-12-07T06:05:45;71.03;;;36.42;;
28246;SDS011;34504;53.178;22.058;2022-12-07T06:08:14;61.75;;;34.30;;
28246;SDS011;34504;53.178;22.058;2022-12-07T06:10:42;60.15;;;33.13;;
28246;SDS011;34504;53.178;22.058;2022-12-07T06:13:10;66.45;;;36.83;;
28246;SDS011;34504;53.178;22.058;2022-12-07T06:15:41;63.92;;;34.05;;
28246;SDS011;34504;53.178;22.058;2022-12-07T06:18:09;73.43;;;36.20;;
28246;SDS011;34504;53.178;22.058;2022-12-07T06:20:37;63.65;;;33.55;;
28246;SDS011;34504;53.178;22.058;2022-12-07T06:23:05;65.95;;;32.63;;
28246;SDS011;34504;53.178;22.058;2022-12-07T06:25:33;73.05;;;34.20;;
28246;SDS011;34504;53.178;22.058;2022-12-07T06:28:02;74.18;;;33.45;;
28246;SDS011;34504;53.178;22.058;2022-12-07T06:30:29;75.55;;;35.00;;
28246;SDS011;34504;53.178;22.058;2022-12-07T06:32:58;68.82;;;34.25;;
28246;SDS011;34504;53.178;22.058;2022-12-07T06:35:26;75.82;;;37.78;;
28246;SDS011;34504;53.178;22.058;2022-12-07T06:37:54;76.63;;;37.90;;
28246;SDS011;34504;53.178;22.058;2022-12-07T06:40:22;70.97;;;34.60;;
28246;SDS011;34504;53.178;22.058;2022-12-07T06:42:50;60.65;;;32.85;;
28246;SDS011;34504;53.178;22.058;2022-12-07T06:45:18;60.55;;;30.92;;
28246;SDS011;34504;53.178;22.058;2022-12-07T06:47:46;74.55;;;39.70;;
28246;SDS011;34504;53.178;22.058;2022-12-07T06:50:14;93.45;;;46.80;;
28246;SDS011;34504;53.178;22.058;2022-12-07T06:52:42;77.78;;;38.65;;
28246;SDS011;34504;53.178;22.058;2022-12-07T06:55:10;79.85;;;39.20;;
28246;SDS011;34504;53.178;22.058;2022-12-07T06:57:38;84.25;;;37.58;;
28246;SDS011;34504;53.178;22.058;2022-12-07T07:00:07;89.45;;;39.40;;
28246;SDS011;34504;53.178;22.058;2022-12-07T07:02:35;88.47;;;40.90;;
28246;SDS011;34504;53.178;22.058;2022-12-07T07:05:03;100.03;;;42.28;;
28246;SDS011;34504;53.178;22.058;2022-12-07T07:07:32;81.22;;;36.67;;
28246;SDS011;34504;53.178;22.058;2022-12-07T07:10:19;81.55;;;35.22;;
28246;SDS011;34504;53.178;22.058;2022-12-07T07:12:48;77.35;;;34.58;;
28246;SDS011;34504;53.178;22.058;2022-12-07T07:15:23;64.20;;;33.13;;
28246;SDS011;34504;53.178;22.058;2022-12-07T07:17:52;66.53;;;35.03;;
28246;SDS011;34504;53.178;22.058;2022-12-07T07:20:21;66.18;;;36.20;;
28246;SDS011;34504;53.178;22.058;2022-12-07T07:22:49;74.60;;;38.50;;
28246;SDS011;34504;53.178;22.058;2022-12-07T07:25:17;64.45;;;33.33;;
28246;SDS011;34504;53.178;22.058;2022-12-07T07:27:46;56.58;;;28.85;;
28246;SDS011;34504;53.178;22.058;2022-12-07T07:30:14;52.45;;;28.38;;
28246;SDS011;34504;53.178;22.058;2022-12-07T07:32:43;48.00;;;26.73;;
28246;SDS011;34504;53.178;22.058;2022-12-07T07:35:11;53.53;;;27.65;;
28246;SDS011;34504;53.178;22.058;2022-12-07T07:37:41;34.05;;;17.02;;
28246;SDS011;34504;53.178;22.058;2022-12-07T07:40:09;53.22;;;26.13;;
28246;SDS011;34504;53.178;22.058;2022-12-07T07:42:46;49.53;;;26.50;;
28246;SDS011;34504;53.178;22.058;2022-12-07T07:45:15;46.40;;;23.83;;
28246;SDS011;34504;53.178;22.058;2022-12-07T07:47:45;48.55;;;25.00;;
28246;SDS011;34504;53.178;22.058;2022-12-07T07:50:15;42.35;;;21.92;;
28246;SDS011;34504;53.178;22.058;2022-12-07T07:52:46;43.13;;;23.17;;
28246;SDS011;34504;53.178;22.058;2022-12-07T07:55:14;43.30;;;23.30;;
28246;SDS011;34504;53.178;22.058;2022-12-07T07:57:43;42.63;;;21.95;;
28246;SDS011;34504;53.178;22.058;2022-12-07T08:00:20;45.20;;;23.00;;
28246;SDS011;34504;53.178;22.058;2022-12-07T08:02:49;46.47;;;22.75;;
28246;SDS011;34504;53.178;22.058;2022-12-07T08:05:17;50.97;;;24.40;;
28246;SDS011;34504;53.178;22.058;2022-12-07T08:07:45;52.00;;;26.48;;
28246;SDS011;34504;53.178;22.058;2022-12-07T08:10:13;42.45;;;23.23;;
28246;SDS011;34504;53.178;22.058;2022-12-07T08:12:42;46.78;;;23.25;;
28246;SDS011;34504;53.178;22.058;2022-12-07T08:15:29;43.60;;;21.92;;
28246;SDS011;34504;53.178;22.058;2022-12-07T08:17:59;46.13;;;22.30;;
28246;SDS011;34504;53.178;22.058;2022-12-07T08:20:29;46.95;;;23.08;;
28246;SDS011;34504;53.178;22.058;2022-12-07T08:26:03;47.25;;;23.60;;
28246;SDS011;34504;53.178;22.058;2022-12-07T08:28:32;40.10;;;21.40;;
28246;SDS011;34504;53.178;22.058;2022-12-07T08:31:01;40.50;;;20.67;;
28246;SDS011;34504;53.178;22.058;2022-12-07T08:33:31;39.35;;;20.77;;
28246;SDS011;34504;53.178;22.058;2022-12-07T08:36:03;37.22;;;20.38;;
28246;SDS011;34504;53.178;22.058;2022-12-07T08:38:36;37.50;;;21.40;;
28246;SDS011;34504;53.178;22.058;2022-12-07T08:41:05;44.05;;;21.92;;
28246;SDS011;34504;53.178;22.058;2022-12-07T08:43:38;53.15;;;25.50;;
28246;SDS011;34504;53.178;22.058;2022-12-07T08:48:44;46.17;;;24.50;;
28246;SDS011;34504;53.178;22.058;2022-12-07T08:51:29;47.30;;;25.33;;
28246;SDS011;34504;53.178;22.058;2022-12-07T08:53:58;48.50;;;26.52;;
28246;SDS011;34504;53.178;22.058;2022-12-07T08:56:28;48.72;;;26.70;;
28246;SDS011;34504;53.178;22.058;2022-12-07T08:58:56;41.42;;;23.35;;
28246;SDS011;34504;53.178;22.058;2022-12-07T09:01:25;35.22;;;20.83;;
28246;SDS011;34504;53.178;22.058;2022-12-07T09:03:54;37.92;;;22.02;;
28246;SDS011;34504;53.178;22.058;2022-12-07T09:06:22;44.53;;;23.38;;
28246;SDS011;34504;53.178;22.058;2022-12-07T09:08:51;38.55;;;22.25;;
28246;SDS011;34504;53.178;22.058;2022-12-07T09:11:29;41.78;;;21.45;;
28246;SDS011;34504;53.178;22.058;2022-12-07T09:13:57;42.25;;;22.23;;
28246;SDS011;34504;53.178;22.058;2022-12-07T09:16:25;40.22;;;21.40;;
28246;SDS011;34504;53.178;22.058;2022-12-07T09:18:54;37.92;;;19.98;;
28246;SDS011;34504;53.178;22.058;2022-12-07T09:21:21;34.13;;;19.38;;
28246;SDS011;34504;53.178;22.058;2022-12-07T09:23:50;37.28;;;20.15;;
28246;SDS011;34504;53.178;22.058;2022-12-07T09:26:18;33.53;;;19.05;;
28246;SDS011;34504;53.178;22.058;2022-12-07T09:28:46;32.33;;;19.05;;
28246;SDS011;34504;53.178;22.058;2022-12-07T09:31:14;124.13;;;70.53;;
28246;SDS011;34504;53.178;22.058;2022-12-07T09:33:55;51.13;;;32.17;;
28246;SDS011;34504;53.178;22.058;2022-12-07T09:36:24;37.88;;;24.67;;
28246;SDS011;34504;53.178;22.058;2022-12-07T09:38:53;32.42;;;21.05;;
28246;SDS011;34504;53.178;22.058;2022-12-07T09:41:22;32.05;;;19.23;;
28246;SDS011;34504;53.178;22.058;2022-12-07T09:43:54;29.70;;;19.88;;
28246;SDS011;34504;53.178;22.058;2022-12-07T09:46:34;33.80;;;21.40;;
28246;SDS011;34504;53.178;22.058;2022-12-07T09:49:08;30.25;;;17.85;;
28246;SDS011;34504;53.178;22.058;2022-12-07T09:51:45;26.95;;;15.82;;
28246;SDS011;34504;53.178;22.058;2022-12-07T09:54:16;27.92;;;16.58;;
28246;SDS011;34504;53.178;22.058;2022-12-07T09:56:44;31.20;;;18.58;;
28246;SDS011;34504;53.178;22.058;2022-12-07T09:59:13;31.80;;;18.58;;
28246;SDS011;34504;53.178;22.058;2022-12-07T10:01:49;27.10;;;16.10;;
28246;SDS011;34504;53.178;22.058;2022-12-07T10:04:22;31.40;;;16.95;;
28246;SDS011;34504;53.178;22.058;2022-12-07T10:06:52;28.73;;;16.48;;
28246;SDS011;34504;53.178;22.058;2022-12-07T10:09:21;29.10;;;17.25;;
28246;SDS011;34504;53.178;22.058;2022-12-07T10:12:05;36.53;;;20.88;;
28246;SDS011;34504;53.178;22.058;2022-12-07T10:14:39;27.48;;;15.25;;
28246;SDS011;34504;53.178;22.058;2022-12-07T10:17:37;24.95;;;14.25;;
28246;SDS011;34504;53.178;22.058;2022-12-07T10:22:58;22.20;;;12.60;;
28246;SDS011;34504;53.178;22.058;2022-12-07T10:25:33;21.50;;;12.13;;
28246;SDS011;34504;53.178;22.058;2022-12-07T10:28:27;26.70;;;13.88;;
28246;SDS011;34504;53.178;22.058;2022-12-07T10:31:15;26.02;;;14.73;;
28246;SDS011;34504;53.178;22.058;2022-12-07T10:41:29;31.65;;;17.20;;
28246;SDS011;34504;53.178;22.058;2022-12-07T10:43:57;42.97;;;20.00;;
28246;SDS011;34504;53.178;22.058;2022-12-07T10:46:30;41.17;;;19.17;;
28246;SDS011;34504;53.178;22.058;2022-12-07T11:05:39;42.33;;;20.38;;
28246;SDS011;34504;53.178;22.058;2022-12-07T11:10:48;51.03;;;23.73;;
28246;SDS011;34504;53.178;22.058;2022-12-07T11:13:28;42.10;;;22.85;;
28246;SDS011;34504;53.178;22.058;2022-12-07T11:21:56;24.25;;;14.90;;
28246;SDS011;34504;53.178;22.058;2022-12-07T11:24:39;26.15;;;15.85;;
28246;SDS011;34504;53.178;22.058;2022-12-07T11:27:28;21.02;;;12.93;;
28246;SDS011;34504;53.178;22.058;2022-12-07T11:30:54;22.40;;;13.90;;
28246;SDS011;34504;53.178;22.058;2022-12-07T11:35:54;43.53;;;20.38;;
28246;SDS011;34504;53.178;22.058;2022-12-07T11:46:29;39.00;;;21.27;;
28246;SDS011;34504;53.178;22.058;2022-12-07T11:49:15;40.92;;;20.85;;
28246;SDS011;34504;53.178;22.058;2022-12-07T11:51:55;40.03;;;21.90;;
28246;SDS011;34504;53.178;22.058;2022-12-07T11:54:27;40.30;;;22.23;;
28246;SDS011;34504;53.178;22.058;2022-12-07T11:57:01;36.03;;;20.63;;
28246;SDS011;34504;53.178;22.058;2022-12-07T11:59:39;41.92;;;23.27;;
28246;SDS011;34504;53.178;22.058;2022-12-07T12:02:14;47.03;;;25.67;;
28246;SDS011;34504;53.178;22.058;2022-12-07T12:05:02;36.00;;;19.83;;
28246;SDS011;34504;53.178;22.058;2022-12-07T12:07:59;32.67;;;17.48;;
28246;SDS011;34504;53.178;22.058;2022-12-07T12:11:00;34.78;;;18.13;;
28246;SDS011;34504;53.178;22.058;2022-12-07T12:21:55;199.02;;;120.78;;
28246;SDS011;34504;53.178;22.058;2022-12-07T12:24:37;470.15;;;320.55;;
28246;SDS011;34504;53.178;22.058;2022-12-07T12:27:15;170.60;;;99.00;;
28246;SDS011;34504;53.178;22.058;2022-12-07T12:30:06;148.07;;;92.72;;
28246;SDS011;34504;53.178;22.058;2022-12-07T12:33:01;133.80;;;91.97;;
28246;SDS011;34504;53.178;22.058;2022-12-07T12:35:35;117.35;;;79.35;;
28246;SDS011;34504;53.178;22.058;2022-12-07T12:41:03;61.10;;;33.85;;
28246;SDS011;34504;53.178;22.058;2022-12-07T12:43:45;70.50;;;34.13;;
28246;SDS011;34504;53.178;22.058;2022-12-07T12:49:58;71.93;;;37.13;;
28246;SDS011;34504;53.178;22.058;2022-12-07T12:55:12;96.30;;;56.03;;
28246;SDS011;34504;53.178;22.058;2022-12-07T12:58:21;65.93;;;37.13;;
28246;SDS011;34504;53.178;22.058;2022-12-07T13:01:33;106.47;;;61.05;;
28246;SDS011;34504;53.178;22.058;2022-12-07T13:03:54;247.00;;;135.38;;
28246;SDS011;34504;53.178;22.058;2022-12-07T13:08:56;85.40;;;48.00;;
28246;SDS011;34504;53.178;22.058;2022-12-07T13:11:33;86.40;;;48.60;;
28246;SDS011;34504;53.178;22.058;2022-12-07T13:17:09;81.57;;;45.75;;
28246;SDS011;34504;53.178;22.058;2022-12-07T13:27:57;69.13;;;35.15;;
28246;SDS011;34504;53.178;22.058;2022-12-07T13:30:30;69.32;;;36.50;;
28246;SDS011;34504;53.178;22.058;2022-12-07T13:32:59;83.60;;;44.05;;
28246;SDS011;34504;53.178;22.058;2022-12-07T13:37:59;68.63;;;37.63;;
28246;SDS011;34504;53.178;22.058;2022-12-07T13:40:32;90.07;;;47.97;;
28246;SDS011;34504;53.178;22.058;2022-12-07T13:43:01;82.93;;;42.83;;
28246;SDS011;34504;53.178;22.058;2022-12-07T13:45:32;77.50;;;39.65;;
28246;SDS011;34504;53.178;22.058;2022-12-07T13:51:03;82.25;;;41.95;;
28246;SDS011;34504;53.178;22.058;2022-12-07T13:53:51;70.68;;;37.40;;
28246;SDS011;34504;53.178;22.058;2022-12-07T13:59:00;64.40;;;33.25;;
28246;SDS011;34504;53.178;22.058;2022-12-07T14:01:30;63.08;;;32.13;;
28246;SDS011;34504;53.178;22.058;2022-12-07T14:06:54;58.22;;;29.25;;
28246;SDS011;34504;53.178;22.058;2022-12-07T14:09:23;59.38;;;30.52;;
28246;SDS011;34504;53.178;22.058;2022-12-07T14:11:54;51.22;;;25.98;;
28246;SDS011;34504;53.178;22.058;2022-12-07T14:14:36;54.70;;;27.67;;
28246;SDS011;34504;53.178;22.058;2022-12-07T14:17:17;63.30;;;31.65;;
28246;SDS011;34504;53.178;22.058;2022-12-07T14:24:51;64.90;;;33.92;;
28246;SDS011;34504;53.178;22.058;2022-12-07T14:27:49;198.07;;;90.43;;
28246;SDS011;34504;53.178;22.058;2022-12-07T14:30:20;115.35;;;53.83;;
28246;SDS011;34504;53.178;22.058;2022-12-07T14:32:50;235.80;;;123.68;;
28246;SDS011;34504;53.178;22.058;2022-12-07T14:35:21;190.02;;;122.13;;
28246;SDS011;34504;53.178;22.058;2022-12-07T14:37:49;192.73;;;131.50;;
28246;SDS011;34504;53.178;22.058;2022-12-07T14:40:32;115.30;;;74.95;;
28246;SDS011;34504;53.178;22.058;2022-12-07T14:43:01;86.95;;;54.30;;
28246;SDS011;34504;53.178;22.058;2022-12-07T14:45:32;63.63;;;37.42;;
28246;SDS011;34504;53.178;22.058;2022-12-07T14:48:00;105.43;;;67.05;;
28246;SDS011;34504;53.178;22.058;2022-12-07T14:50:49;59.00;;;34.53;;
28246;SDS011;34504;53.178;22.058;2022-12-07T14:53:40;55.50;;;30.38;;
28246;SDS011;34504;53.178;22.058;2022-12-07T14:56:26;55.78;;;27.42;;
28246;SDS011;34504;53.178;22.058;2022-12-07T14:58:55;47.78;;;25.25;;
28246;SDS011;34504;53.178;22.058;2022-12-07T15:01:23;48.33;;;26.75;;
28246;SDS011;34504;53.178;22.058;2022-12-07T15:03:51;54.65;;;30.52;;
28246;SDS011;34504;53.178;22.058;2022-12-07T15:06:19;69.03;;;35.22;;
28246;SDS011;34504;53.178;22.058;2022-12-07T15:08:50;87.80;;;41.97;;
28246;SDS011;34504;53.178;22.058;2022-12-07T15:11:18;110.03;;;58.47;;
28246;SDS011;34504;53.178;22.058;2022-12-07T15:13:47;92.40;;;49.22;;
28246;SDS011;34504;53.178;22.058;2022-12-07T15:16:33;73.05;;;36.78;;
28246;SDS011;34504;53.178;22.058;2022-12-07T15:19:26;125.20;;;58.42;;
28246;SDS011;34504;53.178;22.058;2022-12-07T15:21:56;215.70;;;107.50;;
28246;SDS011;34504;53.178;22.058;2022-12-07T15:24:25;286.47;;;142.40;;
28246;SDS011;34504;53.178;22.058;2022-12-07T15:26:54;260.83;;;136.15;;
28246;SDS011;34504;53.178;22.058;2022-12-07T15:29:22;159.70;;;79.95;;
28246;SDS011;34504;53.178;22.058;2022-12-07T15:31:52;359.65;;;187.70;;
28246;SDS011;34504;53.178;22.058;2022-12-07T15:34:36;165.13;;;79.60;;
28246;SDS011;34504;53.178;22.058;2022-12-07T15:37:07;104.07;;;54.03;;
28246;SDS011;34504;53.178;22.058;2022-12-07T15:39:36;81.18;;;44.53;;
28246;SDS011;34504;53.178;22.058;2022-12-07T15:42:04;97.90;;;51.13;;
28246;SDS011;34504;53.178;22.058;2022-12-07T15:44:32;73.57;;;39.30;;
28246;SDS011;34504;53.178;22.058;2022-12-07T15:47:19;58.30;;;32.78;;
28246;SDS011;34504;53.178;22.058;2022-12-07T15:49:48;58.70;;;30.50;;
28246;SDS011;34504;53.178;22.058;2022-12-07T15:52:16;57.00;;;30.85;;
28246;SDS011;34504;53.178;22.058;2022-12-07T15:54:46;72.70;;;41.53;;
28246;SDS011;34504;53.178;22.058;2022-12-07T15:57:14;63.17;;;29.88;;
28246;SDS011;34504;53.178;22.058;2022-12-07T15:59:50;52.05;;;26.15;;
28246;SDS011;34504;53.178;22.058;2022-12-07T16:02:17;54.53;;;26.38;;
28246;SDS011;34504;53.178;22.058;2022-12-07T16:04:46;53.25;;;26.92;;
28246;SDS011;34504;53.178;22.058;2022-12-07T16:07:14;56.20;;;27.80;;
28246;SDS011;34504;53.178;22.058;2022-12-07T16:09:43;54.50;;;27.98;;
28246;SDS011;34504;53.178;22.058;2022-12-07T16:12:12;57.80;;;29.40;;
28246;SDS011;34504;53.178;22.058;2022-12-07T16:14:41;50.03;;;26.65;;
28246;SDS011;34504;53.178;22.058;2022-12-07T16:17:12;78.82;;;38.42;;
28246;SDS011;34504;53.178;22.058;2022-12-07T16:19:40;79.03;;;38.35;;
28246;SDS011;34504;53.178;22.058;2022-12-07T16:22:08;102.22;;;49.28;;
28246;SDS011;34504;53.178;22.058;2022-12-07T16:24:37;128.02;;;62.20;;
28246;SDS011;34504;53.178;22.058;2022-12-07T16:27:05;111.72;;;60.78;;
28246;SDS011;34504;53.178;22.058;2022-12-07T16:29:33;101.78;;;54.92;;
28246;SDS011;34504;53.178;22.058;2022-12-07T16:32:01;128.15;;;70.93;;
28246;SDS011;34504;53.178;22.058;2022-12-07T16:34:29;111.63;;;62.25;;
28246;SDS011;34504;53.178;22.058;2022-12-07T16:36:57;97.25;;;57.25;;
28246;SDS011;34504;53.178;22.058;2022-12-07T16:39:31;83.47;;;43.47;;
28246;SDS011;34504;53.178;22.058;2022-12-07T16:42:01;71.47;;;38.85;;
28246;SDS011;34504;53.178;22.058;2022-12-07T16:44:29;61.78;;;35.13;;
28246;SDS011;34504;53.178;22.058;2022-12-07T16:46:58;66.43;;;33.15;;
28246;SDS011;34504;53.178;22.058;2022-12-07T16:49:28;54.67;;;30.47;;
28246;SDS011;34504;53.178;22.058;2022-12-07T16:52:05;47.15;;;28.30;;